Decoded Metar for KSUT (SOUTHPORT in NC, USA) (IATA:SUT) | Meteo·Mobile Aviation Weather
aviador You're here:

KSUT Decoded Metar

SOUTHPORT in NC, USA
Report Time2019-05-22 06:20:00
UTC Time2019-05-22 06:38:22
Flight Rules mvfr MVFR
Wind070° at 07 kt
W.Decomp.*RWY 05: 6.2 kt HW 3.3 kt RCW
VisibilityN/A
Phenomena:N/A
Clouds:Overcast 023 Hf
Expected CloudBase > 1,200 ft AGL from Temp-Dew spread
Ceiling2,300 ft
Temp23°C (ISA +8)
Dew Point20°C (83% RH)
QNH1018 hPa
Density Alt1,102 ft
Elevation26 ft
Report Wrong Elevation
Raw Report
METAR KSUT 220620Z AUTO 07007KT 040V100 OVC023 23/20 A3007 RMK AO2
T02280200 PWINO=

Extra information for KSUT:More info

Metar Taf Metar & Taf Last 4 Metars F.Rules Stats Wind Profile Meteogram Temp Stats Airport Information Weather charts Add Link Nearby VenuesMetar ALERT Operation Metar Decoded Social comments

AIRNAV info for KSUT